Time;durP1;ratioP1;P1;durP2;ratioP2;P2;SDS_P1;SDS_P2;PMS_P1;PMS_P2;Temp;Humidity;BMP_temperature;BMP_pressure;BME280_temperature;BME280_humidity;BME280_pressure;Samples;Min_cycle;Max_cycle;Signal;HPM_P1;HPM_P2
2023/11/07 00:00:00;;;;;;;2.33;1.30;;;10.10;99.90;;;;;;5040802;28;20454;-61
2023/11/07 00:02:25;;;;;;;1.77;1.67;;;10.20;99.90;;;;;;5043360;28;20561;-65
2023/11/07 00:04:51;;;;;;;2.93;1.37;;;10.20;99.90;;;;;;5062441;28;20416;-65
2023/11/07 00:07:18;;;;;;;1.50;1.40;;;10.10;99.90;;;;;;5062195;28;20199;-64
2023/11/07 00:09:43;;;;;;;3.17;1.03;;;10.10;99.90;;;;;;5064992;28;20175;-65
2023/11/07 00:12:09;;;;;;;2.87;1.53;;;10.20;99.90;;;;;;5062954;28;20486;-65
2023/11/07 00:14:35;;;;;;;1.67;1.10;;;10.10;99.90;;;;;;5067580;28;20185;-65
2023/11/07 00:17:00;;;;;;;3.00;1.03;;;10.10;99.90;;;;;;5051151;28;20202;-65
2023/11/07 00:19:26;;;;;;;11.47;1.93;;;10.10;99.90;;;;;;5071101;28;20177;-64
2023/11/07 00:21:52;;;;;;;1.50;1.40;;;10.00;99.90;;;;;;5059749;28;20213;-65
2023/11/07 00:24:18;;;;;;;3.53;2.07;;;10.00;99.90;;;;;;5065464;28;20846;-65
2023/11/07 00:26:43;;;;;;;2.00;1.13;;;9.90;99.90;;;;;;5060928;28;20339;-65
2023/11/07 00:29:11;;;;;;;4.90;1.50;;;9.90;99.90;;;;;;5061628;28;20257;-65
2023/11/07 00:31:37;;;;;;;4.77;1.13;;;9.80;99.90;;;;;;5062248;28;20174;-65
2023/11/07 00:34:04;;;;;;;2.00;1.20;;;9.80;99.90;;;;;;5045928;28;20435;-65
2023/11/07 00:36:29;;;;;;;1.57;1.20;;;9.70;99.90;;;;;;5064589;28;20940;-65
2023/11/07 00:38:57;;;;;;;1.90;1.10;;;9.60;99.90;;;;;;5064681;28;20511;-65
2023/11/07 00:41:23;;;;;;;5.40;1.63;;;9.60;99.90;;;;;;5061832;28;20179;-67
2023/11/07 00:43:49;;;;;;;1.20;1.10;;;9.50;99.90;;;;;;5061069;28;20421;-66
2023/11/07 00:46:14;;;;;;;4.10;1.40;;;9.50;99.90;;;;;;5062578;28;20445;-66
2023/11/07 00:48:41;;;;;;;2.80;1.10;;;9.60;99.90;;;;;;5071431;28;20174;-65
2023/11/07 00:51:07;;;;;;;3.10;1.40;;;9.40;99.90;;;;;;5056780;28;20621;-65
2023/11/07 00:53:33;;;;;;;1.70;1.33;;;9.50;99.90;;;;;;5064638;28;20429;-65
2023/11/07 00:55:58;;;;;;;4.03;1.30;;;9.40;99.90;;;;;;5064952;28;20433;-65
2023/11/07 00:58:24;;;;;;;2.27;1.23;;;9.40;99.90;;;;;;5060637;28;20195;-65
2023/11/07 01:00:50;;;;;;;2.13;1.30;;;9.40;99.90;;;;;;5026038;28;20270;-65
2023/11/07 01:03:15;;;;;;;6.83;1.33;;;9.20;99.90;;;;;;5058896;28;20213;-65
2023/11/07 01:05:41;;;;;;;3.20;1.30;;;9.20;99.90;;;;;;5060727;28;20191;-65
2023/11/07 01:08:06;;;;;;;3.10;2.53;;;9.30;99.90;;;;;;5061192;28;20266;-65
2023/11/07 01:10:32;;;;;;;1.33;1.00;;;9.30;99.90;;;;;;5064310;28;20584;-65
2023/11/07 01:12:59;;;;;;;1.03;0.93;;;9.20;99.90;;;;;;5063706;28;20174;-65
2023/11/07 01:15:25;;;;;;;2.27;1.00;;;9.10;99.90;;;;;;5060965;28;20417;-65
2023/11/07 01:17:51;;;;;;;1.60;1.30;;;9.10;99.90;;;;;;5057480;28;20980;-64
2023/11/07 01:20:17;;;;;;;4.00;1.30;;;9.10;99.90;;;;;;5062576;28;20459;-68
2023/11/07 01:22:44;;;;;;;3.23;1.10;;;9.00;99.90;;;;;;5064087;28;20420;-64
2023/11/07 01:25:10;;;;;;;6.73;1.27;;;8.90;99.90;;;;;;5065877;28;20260;-64
2023/11/07 01:27:36;;;;;;;3.57;1.23;;;8.90;99.90;;;;;;5064527;28;20444;-64
2023/11/07 01:30:04;;;;;;;1.80;1.50;;;8.90;99.90;;;;;;5064113;28;20441;-64
2023/11/07 01:32:30;;;;;;;1.37;1.23;;;8.90;99.90;;;;;;5068920;28;20618;-64
2023/11/07 01:34:56;;;;;;;1.43;1.20;;;8.80;99.90;;;;;;5058078;28;21134;-64
2023/11/07 01:37:21;;;;;;;2.40;1.20;;;8.80;99.90;;;;;;5061646;28;20452;-64
2023/11/07 01:39:47;;;;;;;1.30;1.10;;;8.80;99.90;;;;;;5060597;28;20633;-64
2023/11/07 01:42:13;;;;;;;1.40;1.30;;;8.70;99.90;;;;;;5061053;28;20259;-64
2023/11/07 01:44:52;;;;;;;1.10;0.93;;;8.70;99.90;;;;;;5063711;28;20173;-64
2023/11/07 01:47:19;;;;;;;1.77;1.57;;;8.60;99.90;;;;;;5061905;28;20205;-64
2023/11/07 01:49:49;;;;;;;1.90;1.47;;;8.60;99.90;;;;;;5062817;28;20488;-62
2023/11/07 01:52:17;;;;;;;1.40;1.30;;;8.70;99.90;;;;;;5062573;28;20408;-65
2023/11/07 01:54:46;;;;;;;2.70;1.60;;;8.60;99.90;;;;;;5065543;28;20453;-64
2023/11/07 01:57:13;;;;;;;1.77;1.30;;;8.60;99.90;;;;;;5063091;28;20495;-65
2023/11/07 01:59:40;;;;;;;1.70;1.27;;;8.60;99.90;;;;;;5064527;28;20416;-64
2023/11/07 02:02:10;;;;;;;1.63;1.17;;;8.50;99.90;;;;;;5055101;28;20436;-66
2023/11/07 02:04:35;;;;;;;2.30;1.10;;;8.60;99.90;;;;;;5060009;28;20418;-65
2023/11/07 02:07:01;;;;;;;4.20;1.13;;;8.60;99.90;;;;;;5059710;28;20963;-65
2023/11/07 02:09:27;;;;;;;2.07;1.10;;;8.60;99.90;;;;;;5060822;28;20190;-65
2023/11/07 02:11:53;;;;;;;2.93;1.30;;;8.50;99.90;;;;;;5063449;28;20303;-63
2023/11/07 02:14:36;;;;;;;1.40;1.30;;;8.50;99.90;;;;;;5061571;28;20819;-64
2023/11/07 02:17:03;;;;;;;1.80;1.17;;;8.50;99.90;;;;;;5059805;28;20238;-66
2023/11/07 02:19:29;;;;;;;1.30;1.20;;;8.50;99.90;;;;;;5056302;28;20433;-65
2023/11/07 02:21:59;;;;;;;6.07;1.17;;;8.50;99.90;;;;;;5055178;28;20898;-66
2023/11/07 02:24:26;;;;;;;2.17;1.10;;;8.40;99.90;;;;;;5066730;28;20643;-65
2023/11/07 02:27:00;;;;;;;1.80;1.70;;;8.40;99.90;;;;;;5072128;28;20437;-64
2023/11/07 02:29:26;;;;;;;1.37;1.20;;;8.40;99.90;;;;;;5069098;28;20917;-65
2023/11/07 02:31:52;;;;;;;1.97;1.20;;;8.30;99.90;;;;;;5070068;28;20418;-65
2023/11/07 02:34:18;;;;;;;2.00;1.50;;;8.30;99.90;;;;;;5074378;28;20812;-65
2023/11/07 02:36:44;;;;;;;2.00;1.27;;;8.30;99.90;;;;;;5028530;28;20228;-65
2023/11/07 02:39:12;;;;;;;1.63;1.10;;;8.30;99.90;;;;;;5062910;28;20461;-64
2023/11/07 02:41:44;;;;;;;1.50;1.40;;;8.30;99.90;;;;;;5066603;28;20650;-63
2023/11/07 02:44:15;;;;;;;1.33;1.20;;;8.30;99.90;;;;;;5066513;28;20779;-63
2023/11/07 02:46:41;;;;;;;1.57;1.47;;;8.30;99.90;;;;;;5069446;28;20434;-64
2023/11/07 02:49:06;;;;;;;2.60;1.17;;;8.30;99.90;;;;;;5069474;28;20418;-64
2023/11/07 02:51:32;;;;;;;1.80;1.60;;;8.30;99.90;;;;;;5070113;28;20173;-63
2023/11/07 02:53:58;;;;;;;1.73;1.03;;;8.30;99.90;;;;;;5066156;28;20643;-64
2023/11/07 02:56:27;;;;;;;1.50;1.20;;;8.30;99.90;;;;;;5065689;28;20444;-63
2023/11/07 02:58:54;;;;;;;1.20;1.10;;;8.30;99.90;;;;;;5066101;28;20167;-64
2023/11/07 03:01:22;;;;;;;1.77;1.60;;;8.30;99.90;;;;;;5067341;28;20450;-64
2023/11/07 03:03:49;;;;;;;1.67;1.57;;;8.30;99.90;;;;;;5029734;28;20421;-64
2023/11/07 03:06:15;;;;;;;1.20;0.97;;;8.30;99.90;;;;;;5066076;28;20460;-65
2023/11/07 03:08:40;;;;;;;2.10;1.27;;;8.20;99.90;;;;;;5073081;28;20412;-64
2023/11/07 03:11:06;;;;;;;1.83;1.40;;;8.20;99.90;;;;;;5065777;28;20176;-63
2023/11/07 03:13:34;;;;;;;2.53;1.63;;;8.20;99.90;;;;;;5068319;28;20173;-65
2023/11/07 03:16:03;;;;;;;1.67;1.43;;;8.20;99.90;;;;;;5069064;28;20192;-64
2023/11/07 03:18:28;;;;;;;3.97;1.30;;;8.20;99.90;;;;;;5066438;28;20457;-64
2023/11/07 03:20:54;;;;;;;1.73;1.20;;;8.20;99.90;;;;;;5067118;28;20490;-65
2023/11/07 03:23:20;;;;;;;2.30;1.30;;;8.30;99.90;;;;;;5067493;28;20178;-64
2023/11/07 03:25:45;;;;;;;2.00;1.10;;;8.30;99.90;;;;;;5069270;28;20551;-65
2023/11/07 03:28:11;;;;;;;1.30;1.10;;;8.20;99.90;;;;;;5065630;28;20180;-62
2023/11/07 03:30:37;;;;;;;1.90;0.90;;;8.20;99.90;;;;;;5050157;28;20262;-64
2023/11/07 03:33:03;;;;;;;3.43;1.30;;;8.30;99.90;;;;;;5070248;28;20972;-64
2023/11/07 03:35:29;;;;;;;2.07;1.40;;;8.20;99.90;;;;;;5072659;28;20204;-65
2023/11/07 03:37:55;;;;;;;1.23;1.13;;;8.20;99.90;;;;;;5068087;28;20207;-63
2023/11/07 03:40:21;;;;;;;1.20;1.10;;;8.20;99.90;;;;;;5064104;28;20417;-63
2023/11/07 03:42:47;;;;;;;1.27;1.17;;;8.30;99.90;;;;;;5062343;28;20220;-63
2023/11/07 03:45:12;;;;;;;1.20;1.10;;;8.20;99.90;;;;;;5062172;28;20173;-63
2023/11/07 03:47:38;;;;;;;3.30;1.20;;;8.20;99.90;;;;;;5057399;28;20221;-66
2023/11/07 03:50:04;;;;;;;1.83;1.27;;;8.30;99.90;;;;;;5073904;28;20176;-63
2023/11/07 03:52:30;;;;;;;2.30;1.53;;;8.30;99.90;;;;;;5063163;28;20647;-65
2023/11/07 03:54:57;;;;;;;4.57;1.30;;;8.20;99.90;;;;;;5067720;28;20421;-64
2023/11/07 03:57:23;;;;;;;3.33;1.30;;;8.20;99.90;;;;;;5066749;28;20310;-64
2023/11/07 03:59:50;;;;;;;3.97;1.50;;;8.20;99.90;;;;;;5065096;28;20924;-63
2023/11/07 04:02:16;;;;;;;2.30;1.20;;;8.20;99.90;;;;;;5056071;28;20420;-63
2023/11/07 04:04:42;;;;;;;2.27;1.40;;;8.20;99.90;;;;;;5049687;28;20433;-64
2023/11/07 04:07:07;;;;;;;1.80;1.20;;;8.20;99.90;;;;;;5056342;28;21022;-64
2023/11/07 04:09:34;;;;;;;1.43;1.10;;;8.20;99.90;;;;;;5064800;28;20275;-64
2023/11/07 04:12:00;;;;;;;1.53;1.17;;;8.20;99.90;;;;;;5056249;28;20191;-63
2023/11/07 04:14:25;;;;;;;2.50;1.30;;;8.20;99.90;;;;;;5048178;28;20987;-65
2023/11/07 04:16:51;;;;;;;1.80;1.10;;;8.20;99.90;;;;;;5071947;28;20201;-65
2023/11/07 04:19:17;;;;;;;2.40;1.23;;;8.10;99.90;;;;;;5062112;28;20176;-64
2023/11/07 04:21:43;;;;;;;1.40;1.30;;;8.10;99.90;;;;;;5064866;28;20290;-64
2023/11/07 04:24:09;;;;;;;7.30;1.80;;;8.10;99.90;;;;;;5069089;28;20441;-64
2023/11/07 04:26:37;;;;;;;2.40;1.10;;;8.10;99.90;;;;;;5061880;28;20432;-64
2023/11/07 04:29:04;;;;;;;5.23;1.50;;;8.10;99.90;;;;;;5045223;28;20463;-65
2023/11/07 04:31:30;;;;;;;1.90;0.90;;;8.10;99.90;;;;;;5063005;28;20518;-65
2023/11/07 04:33:55;;;;;;;1.50;1.17;;;8.00;99.90;;;;;;5061216;28;20932;-65
2023/11/07 04:36:22;;;;;;;2.00;1.50;;;8.10;99.90;;;;;;5044152;28;20464;-64
2023/11/07 04:38:48;;;;;;;2.10;1.30;;;8.00;99.90;;;;;;5069969;28;20245;-63
2023/11/07 04:41:14;;;;;;;2.27;1.50;;;8.00;99.90;;;;;;5064858;28;20407;-62
2023/11/07 04:43:40;;;;;;;1.40;1.27;;;8.10;99.90;;;;;;5061235;28;20829;-64
2023/11/07 04:46:06;;;;;;;2.73;1.80;;;8.00;99.90;;;;;;5068045;28;20191;-63
2023/11/07 04:48:32;;;;;;;3.47;1.20;;;8.00;99.90;;;;;;5061374;28;20767;-64
2023/11/07 04:50:59;;;;;;;3.50;1.20;;;8.00;99.90;;;;;;5060709;28;20417;-64
2023/11/07 04:53:26;;;;;;;1.37;1.17;;;8.00;99.90;;;;;;5062195;28;20666;-64
2023/11/07 04:55:52;;;;;;;1.93;1.43;;;8.00;99.90;;;;;;5056527;28;20460;-64
2023/11/07 04:58:18;;;;;;;2.07;1.57;;;8.00;99.90;;;;;;5042628;28;20460;-65
2023/11/07 05:00:44;;;;;;;7.93;1.73;;;8.00;99.90;;;;;;5051500;28;20175;-65
2023/11/07 05:03:10;;;;;;;1.00;0.90;;;8.00;99.90;;;;;;5060701;28;20172;-65
2023/11/07 05:05:36;;;;;;;2.20;1.37;;;8.00;99.90;;;;;;5060500;28;20539;-64
2023/11/07 05:08:01;;;;;;;0.93;0.93;;;8.00;99.90;;;;;;5061091;28;20510;-65
2023/11/07 05:10:27;;;;;;;2.40;1.23;;;8.00;99.90;;;;;;5067885;28;20273;-65
2023/11/07 05:12:54;;;;;;;2.03;1.10;;;8.00;99.90;;;;;;5055013;28;20232;-62
2023/11/07 05:15:19;;;;;;;1.87;1.63;;;8.00;99.90;;;;;;5057665;28;20411;-63
2023/11/07 05:17:45;;;;;;;1.80;1.50;;;8.00;99.90;;;;;;5044909;28;20810;-62
2023/11/07 05:20:11;;;;;;;2.00;1.20;;;8.10;99.90;;;;;;5053651;28;20181;-62
2023/11/07 05:22:37;;;;;;;1.13;1.03;;;8.10;99.90;;;;;;5041707;28;20172;-62
2023/11/07 05:25:07;;;;;;;2.33;1.40;;;8.10;99.90;;;;;;5035663;28;20466;-63
2023/11/07 05:27:32;;;;;;;2.13;1.30;;;8.00;99.90;;;;;;5069172;28;20681;-62
2023/11/07 05:29:58;;;;;;;2.80;1.23;;;8.00;99.90;;;;;;5072155;28;20422;-60
2023/11/07 05:32:23;;;;;;;3.60;1.23;;;8.00;99.90;;;;;;5064140;28;20185;-63
2023/11/07 05:34:49;;;;;;;1.47;1.30;;;8.00;99.90;;;;;;5066717;28;20193;-64
2023/11/07 05:37:18;;;;;;;2.93;1.20;;;8.00;99.90;;;;;;5054012;28;20218;-63
2023/11/07 05:39:44;;;;;;;1.30;1.20;;;8.00;99.90;;;;;;5071896;28;20547;-63
2023/11/07 05:42:10;;;;;;;2.03;1.17;;;8.00;99.90;;;;;;5072037;28;20456;-60
2023/11/07 05:44:37;;;;;;;8.30;1.57;;;8.00;99.90;;;;;;5071694;28;20827;-61
2023/11/07 05:47:03;;;;;;;1.53;1.43;;;8.00;99.90;;;;;;5071782;28;20457;-63
2023/11/07 05:49:29;;;;;;;2.17;1.50;;;8.00;99.90;;;;;;5071572;28;20415;-63
2023/11/07 05:51:54;;;;;;;2.17;1.40;;;8.00;99.90;;;;;;5065147;28;20434;-63
2023/11/07 05:54:20;;;;;;;4.43;1.70;;;8.00;99.90;;;;;;5071796;28;20195;-63
2023/11/07 05:56:46;;;;;;;3.13;1.63;;;8.00;99.90;;;;;;5053583;28;20583;-62
2023/11/07 05:59:11;;;;;;;1.43;1.33;;;8.00;99.90;;;;;;5052375;28;20250;-61
2023/11/07 06:01:37;;;;;;;2.03;1.00;;;8.00;99.90;;;;;;5053275;28;20838;-61
2023/11/07 06:04:04;;;;;;;4.60;2.27;;;8.00;99.90;;;;;;5053559;28;20184;-60
2023/11/07 06:06:29;;;;;;;1.73;1.63;;;8.00;99.90;;;;;;5060169;28;20219;-59
2023/11/07 06:08:55;;;;;;;1.67;1.57;;;7.90;99.90;;;;;;5050925;28;20421;-58
2023/11/07 06:11:20;;;;;;;2.70;1.80;;;7.90;99.90;;;;;;5071269;28;20224;-61
2023/11/07 06:13:46;;;;;;;1.90;1.40;;;8.00;99.90;;;;;;5056096;28;20191;-62
2023/11/07 06:16:12;;;;;;;6.03;2.03;;;8.00;99.90;;;;;;5058512;28;20208;-63
2023/11/07 06:18:39;;;;;;;5.27;1.30;;;8.00;99.90;;;;;;5061292;28;20205;-62
2023/11/07 06:21:05;;;;;;;1.10;1.00;;;8.00;99.90;;;;;;5038909;28;20252;-62
2023/11/07 06:23:31;;;;;;;2.37;1.40;;;8.00;99.90;;;;;;5058766;28;20497;-62
2023/11/07 06:25:57;;;;;;;1.70;1.60;;;8.00;99.90;;;;;;5060256;28;20520;-62
2023/11/07 06:28:22;;;;;;;2.17;1.77;;;8.00;99.90;;;;;;5068012;28;21004;-63
2023/11/07 06:30:48;;;;;;;1.50;1.40;;;8.00;99.90;;;;;;5062478;28;20184;-64
2023/11/07 06:33:14;;;;;;;1.87;1.67;;;8.00;99.90;;;;;;5055630;28;20175;-63
2023/11/07 06:35:42;;;;;;;2.17;1.63;;;8.00;99.90;;;;;;5058317;28;20173;-64
2023/11/07 06:38:08;;;;;;;3.80;1.87;;;8.00;99.90;;;;;;5063367;28;20600;-63
2023/11/07 06:40:34;;;;;;;2.20;1.13;;;8.00;99.90;;;;;;5044993;28;20910;-62
2023/11/07 06:43:00;;;;;;;1.73;1.50;;;8.00;99.90;;;;;;5063534;28;20529;-65
2023/11/07 06:45:25;;;;;;;3.27;1.57;;;8.00;99.90;;;;;;5064449;28;20427;-61
2023/11/07 06:47:51;;;;;;;4.03;1.70;;;8.10;99.90;;;;;;5060944;28;20639;-62
2023/11/07 06:50:17;;;;;;;10.03;1.77;;;8.10;99.90;;;;;;5063664;28;20175;-64
2023/11/07 06:52:52;;;;;;;2.40;1.60;;;8.10;99.90;;;;;;5063166;28;20211;-63
2023/11/07 06:55:23;;;;;;;3.20;1.60;;;8.10;99.90;;;;;;5062366;28;20862;-61
2023/11/07 06:57:50;;;;;;;5.50;1.90;;;8.10;99.90;;;;;;5058171;28;20486;-63
2023/11/07 07:00:16;;;;;;;3.83;2.00;;;8.20;99.90;;;;;;5058130;28;20427;-63
2023/11/07 07:02:42;;;;;;;2.43;1.80;;;8.20;99.90;;;;;;5060258;28;20416;-61
2023/11/07 07:05:12;;;;;;;2.30;1.80;;;8.20;99.90;;;;;;5059716;28;20446;-63
2023/11/07 07:07:41;;;;;;;9.93;2.37;;;8.30;99.90;;;;;;5055411;28;20449;-62
2023/11/07 07:10:09;;;;;;;3.80;1.90;;;8.30;99.90;;;;;;5057590;28;20426;-63
2023/11/07 07:12:35;;;;;;;4.17;1.80;;;8.40;99.90;;;;;;5063168;28;20542;-61
2023/11/07 07:15:02;;;;;;;8.40;2.00;;;8.50;99.90;;;;;;5066933;28;20945;-64
2023/11/07 07:17:27;;;;;;;2.37;1.90;;;8.50;99.90;;;;;;5061736;28;20465;-63
2023/11/07 07:19:53;;;;;;;2.60;2.00;;;8.50;99.90;;;;;;5062635;28;20424;-63
2023/11/07 07:22:27;;;;;;;1.77;1.67;;;8.60;99.90;;;;;;5061694;28;20181;-64
2023/11/07 07:24:54;;;;;;;2.97;2.13;;;8.70;99.90;;;;;;5054459;28;20812;-62
2023/11/07 07:27:24;;;;;;;6.27;2.33;;;8.70;99.90;;;;;;5062094;28;20439;-63
2023/11/07 07:29:50;;;;;;;4.93;2.60;;;8.80;99.90;;;;;;5062282;28;20963;-62
2023/11/07 07:32:15;;;;;;;4.03;2.30;;;8.90;99.90;;;;;;5068945;28;20505;-63
2023/11/07 07:34:41;;;;;;;3.57;2.00;;;8.90;99.90;;;;;;5063214;28;20463;-62
2023/11/07 07:37:09;;;;;;;2.90;2.30;;;9.00;99.90;;;;;;5061656;28;20197;-62
2023/11/07 07:39:35;;;;;;;2.43;2.23;;;9.00;99.90;;;;;;5063195;28;20178;-63
2023/11/07 07:42:11;;;;;;;2.50;2.30;;;9.10;99.90;;;;;;5065516;28;20427;-63
2023/11/07 07:44:38;;;;;;;3.07;2.03;;;9.10;99.90;;;;;;5062175;28;20170;-64
2023/11/07 07:47:04;;;;;;;3.10;1.90;;;9.40;99.90;;;;;;5061777;28;20464;-63
2023/11/07 07:49:32;;;;;;;3.40;2.00;;;10.10;99.90;;;;;;5044056;28;20431;-63
2023/11/07 07:51:59;;;;;;;5.87;2.67;;;10.70;99.90;;;;;;5057805;28;20443;-64
2023/11/07 07:54:25;;;;;;;3.70;2.40;;;11.30;99.90;;;;;;5061930;28;20451;-64
2023/11/07 07:56:57;;;;;;;2.33;2.13;;;11.60;99.90;;;;;;5058352;28;21014;-62
2023/11/07 07:59:23;;;;;;;4.30;2.13;;;11.80;99.90;;;;;;5052791;28;20834;-67
2023/11/07 08:01:55;;;;;;;4.53;2.30;;;11.60;99.90;;;;;;5061996;28;20404;-64
2023/11/07 08:04:28;;;;;;;6.70;2.17;;;11.60;99.90;;;;;;5065002;28;20409;-66
2023/11/07 08:06:54;;;;;;;3.40;2.83;;;11.70;99.90;;;;;;5068704;28;21038;-65
2023/11/07 08:09:22;;;;;;;2.50;2.00;;;11.80;99.90;;;;;;5052440;28;20547;-63
2023/11/07 08:11:50;;;;;;;2.73;1.80;;;11.90;99.90;;;;;;5066224;28;20487;-63
2023/11/07 08:14:16;;;;;;;6.87;1.70;;;11.70;99.90;;;;;;5061015;28;20409;-62
2023/11/07 08:16:43;;;;;;;3.33;1.93;;;11.40;99.90;;;;;;5067813;28;20466;-63
2023/11/07 08:19:12;;;;;;;4.03;2.50;;;11.00;99.90;;;;;;5064300;28;20404;-63
2023/11/07 08:21:41;;;;;;;3.33;1.90;;;10.40;99.90;;;;;;5062509;28;20421;-62
2023/11/07 08:24:07;;;;;;;5.00;1.53;;;10.40;99.90;;;;;;5064748;28;20433;-63
2023/11/07 08:26:35;;;;;;;2.93;1.70;;;10.80;99.90;;;;;;5062297;28;20422;-63
2023/11/07 08:29:07;;;;;;;3.23;2.23;;;11.20;99.90;;;;;;5064577;28;20413;-63
2023/11/07 08:31:36;;;;;;;3.10;1.80;;;11.70;99.90;;;;;;5067313;28;20479;-62
2023/11/07 08:34:04;;;;;;;4.40;1.93;;;11.80;99.90;;;;;;5055832;28;20413;-64
2023/11/07 08:36:31;;;;;;;2.53;1.63;;;12.10;99.90;;;;;;5013289;28;20838;-62
2023/11/07 08:38:57;;;;;;;2.60;1.97;;;12.30;99.90;;;;;;5061002;28;20422;-62
2023/11/07 08:41:26;;;;;;;5.43;2.10;;;12.40;99.90;;;;;;5046944;28;20782;-65
2023/11/07 08:43:52;;;;;;;7.23;2.40;;;12.50;99.90;;;;;;5046890;28;20436;-67
2023/11/07 08:46:20;;;;;;;5.60;2.00;;;12.60;99.90;;;;;;5063716;28;20469;-67
2023/11/07 08:48:46;;;;;;;2.67;1.80;;;13.10;99.90;;;;;;5058506;28;20266;-64
2023/11/07 08:51:16;;;;;;;4.57;2.50;;;12.90;99.90;;;;;;5061139;28;20826;-64
2023/11/07 08:53:45;;;;;;;4.40;1.93;;;13.20;99.90;;;;;;5066282;28;20464;-64
2023/11/07 08:56:12;;;;;;;2.93;2.03;;;12.90;99.90;;;;;;5063959;28;20440;-64
2023/11/07 08:58:38;;;;;;;2.83;2.40;;;12.70;99.90;;;;;;5053565;28;20469;-64
2023/11/07 09:01:04;;;;;;;2.50;1.80;;;12.00;99.90;;;;;;5063707;28;20414;-64
2023/11/07 09:03:31;;;;;;;2.40;1.50;;;11.90;99.90;;;;;;5059202;28;20425;-64
2023/11/07 09:05:56;;;;;;;2.60;1.60;;;12.00;99.90;;;;;;5063843;28;20508;-64
2023/11/07 09:08:22;;;;;;;2.60;1.30;;;12.20;99.90;;;;;;5060496;28;20453;-64
2023/11/07 09:10:48;;;;;;;1.80;1.27;;;12.40;99.90;;;;;;5049235;28;20184;-63
2023/11/07 09:13:14;;;;;;;2.60;1.60;;;13.00;99.90;;;;;;5063517;28;20338;-63
2023/11/07 09:15:41;;;;;;;2.70;1.50;;;13.30;99.90;;;;;;5061834;28;20184;-63
2023/11/07 09:18:07;;;;;;;1.60;1.03;;;13.10;99.90;;;;;;5042387;28;20834;-65
2023/11/07 09:20:34;;;;;;;1.67;1.17;;;13.10;99.90;;;;;;5058482;28;20424;-66
2023/11/07 09:23:00;;;;;;;2.13;1.87;;;13.00;99.90;;;;;;5060089;28;20352;-65
2023/11/07 09:25:25;;;;;;;1.33;1.23;;;13.00;99.90;;;;;;5060044;28;20952;-65
2023/11/07 09:27:51;;;;;;;1.87;1.17;;;13.30;99.90;;;;;;5061627;28;20539;-64
2023/11/07 09:30:18;;;;;;;1.40;1.20;;;12.90;99.90;;;;;;5063312;28;20176;-64
2023/11/07 09:32:43;;;;;;;1.70;1.23;;;13.00;99.90;;;;;;5052145;28;20432;-65
2023/11/07 09:35:09;;;;;;;1.83;1.53;;;12.80;99.90;;;;;;5042975;28;20479;-63
2023/11/07 09:37:39;;;;;;;2.80;1.50;;;12.80;99.90;;;;;;5043029;28;20211;-64
2023/11/07 09:40:09;;;;;;;2.03;1.10;;;13.10;99.90;;;;;;5061551;28;20204;-63
2023/11/07 09:42:35;;;;;;;1.30;1.20;;;12.80;99.90;;;;;;5047855;28;20448;-64
2023/11/07 09:45:09;;;;;;;3.97;1.03;;;12.60;99.90;;;;;;5071199;28;20798;-65
2023/11/07 09:47:35;;;;;;;2.40;1.37;;;12.50;99.90;;;;;;5062842;28;20280;-64
2023/11/07 09:50:07;;;;;;;1.80;1.20;;;12.70;99.90;;;;;;5043406;28;20508;-64
2023/11/07 09:52:33;;;;;;;1.80;1.17;;;12.70;99.90;;;;;;5068126;28;20257;-65
2023/11/07 09:55:06;;;;;;;1.43;1.33;;;12.70;99.90;;;;;;5060685;28;20439;-63
2023/11/07 09:57:35;;;;;;;1.60;1.37;;;12.70;99.90;;;;;;5059334;28;20464;-64
2023/11/07 10:00:03;;;;;;;2.23;1.10;;;12.90;99.90;;;;;;5052143;28;20413;-65
2023/11/07 10:02:30;;;;;;;1.70;1.03;;;12.90;99.90;;;;;;5059564;28;20452;-64
2023/11/07 10:04:57;;;;;;;1.47;1.30;;;12.80;99.90;;;;;;5067507;28;20891;-64
2023/11/07 10:07:23;;;;;;;2.27;1.13;;;12.60;99.90;;;;;;5057899;28;20436;-63
2023/11/07 10:09:50;;;;;;;2.07;1.10;;;12.40;99.90;;;;;;5065940;28;20455;-64
2023/11/07 10:12:16;;;;;;;1.53;1.20;;;12.40;99.90;;;;;;5042313;28;20603;-65
2023/11/07 10:14:42;;;;;;;3.03;1.13;;;12.20;99.90;;;;;;5060612;28;20425;-64
2023/11/07 10:17:20;;;;;;;3.77;1.87;;;12.20;99.90;;;;;;5062758;28;20467;-64
2023/11/07 10:19:46;;;;;;;2.23;2.03;;;12.20;99.90;;;;;;5062780;28;20253;-64
2023/11/07 10:22:12;;;;;;;3.83;1.20;;;12.20;99.90;;;;;;5062440;28;20424;-66
2023/11/07 10:24:45;;;;;;;3.70;2.00;;;12.30;99.90;;;;;;5062664;28;20440;-63
2023/11/07 10:27:11;;;;;;;3.63;1.40;;;12.30;99.90;;;;;;5064076;28;20602;-64
2023/11/07 10:29:51;;;;;;;2.10;1.23;;;12.50;99.90;;;;;;5062922;28;20417;-64
2023/11/07 10:32:17;;;;;;;1.63;1.37;;;12.50;99.90;;;;;;5062680;28;20431;-64
2023/11/07 10:34:43;;;;;;;2.83;1.17;;;12.70;99.90;;;;;;5061873;28;20421;-64
2023/11/07 10:37:09;;;;;;;1.77;1.20;;;12.70;99.90;;;;;;5050349;28;20829;-63
2023/11/07 10:39:35;;;;;;;2.10;1.50;;;12.70;99.90;;;;;;5040687;28;20736;-62
2023/11/07 10:42:18;;;;;;;3.23;1.43;;;12.70;99.90;;;;;;5033081;28;20434;-64
2023/11/07 10:44:45;;;;;;;1.33;1.10;;;12.80;99.90;;;;;;5044542;28;20423;-65
2023/11/07 10:47:11;;;;;;;1.63;0.90;;;12.70;99.90;;;;;;5071355;28;20432;-66
2023/11/07 10:49:36;;;;;;;3.57;1.00;;;12.60;99.90;;;;;;5061822;28;20791;-64
2023/11/07 10:52:06;;;;;;;3.17;1.20;;;12.50;99.90;;;;;;5046390;28;20237;-64
2023/11/07 10:54:32;;;;;;;2.00;1.33;;;12.40;99.90;;;;;;5061294;28;20653;-64
2023/11/07 10:57:05;;;;;;;1.63;1.30;;;12.40;99.90;;;;;;5063781;28;20496;-63
2023/11/07 10:59:33;;;;;;;2.30;1.50;;;12.40;99.90;;;;;;5059924;28;20187;-66
2023/11/07 11:02:04;;;;;;;2.07;1.40;;;12.40;99.90;;;;;;5069001;28;20420;-65
2023/11/07 11:04:38;;;;;;;1.23;1.07;;;12.40;99.90;;;;;;5068667;28;20441;-64
2023/11/07 11:07:06;;;;;;;1.83;1.27;;;12.40;99.90;;;;;;5058572;28;20548;-64
2023/11/07 11:09:34;;;;;;;3.00;1.50;;;12.50;99.90;;;;;;5053479;28;20843;-64
2023/11/07 11:12:06;;;;;;;1.77;1.53;;;12.50;99.90;;;;;;5064827;28;20458;-65
2023/11/07 11:14:32;;;;;;;1.77;1.47;;;12.50;99.90;;;;;;5051491;28;20479;-64
2023/11/07 11:17:08;;;;;;;3.93;1.47;;;12.60;99.90;;;;;;5056974;28;20460;-66
2023/11/07 11:19:54;;;;;;;2.20;1.53;;;12.60;99.90;;;;;;5075300;28;20493;-62
2023/11/07 11:22:26;;;;;;;2.50;1.20;;;12.60;99.90;;;;;;5050025;28;20441;-64
2023/11/07 11:25:31;;;;;;;3.90;3.23;;;12.70;99.90;;;;;;5068107;28;20907;-64
2023/11/07 11:28:01;;;;;;;6.17;2.60;;;12.80;99.90;;;;;;5014390;28;20516;-63
2023/11/07 11:30:31;;;;;;;6.53;3.33;;;12.80;99.90;;;;;;5044864;28;20461;-65
2023/11/07 11:33:08;;;;;;;3.27;2.20;;;12.90;99.90;;;;;;5043630;28;20440;-63
2023/11/07 11:35:38;;;;;;;3.07;1.30;;;12.90;99.90;;;;;;5050795;28;20756;-66
2023/11/07 11:38:11;;;;;;;1.97;1.30;;;12.90;99.90;;;;;;5062391;28;20662;-66
2023/11/07 11:40:51;;;;;;;1.90;1.20;;;13.00;99.90;;;;;;5048838;28;20406;-66
2023/11/07 11:43:31;;;;;;;3.07;1.40;;;13.00;99.90;;;;;;5062573;28;20932;-66
2023/11/07 11:46:18;;;;;;;2.13;1.20;;;13.00;99.90;;;;;;5067071;28;20442;-66
2023/11/07 11:48:49;;;;;;;2.60;1.40;;;13.00;99.90;;;;;;5073285;28;20430;-66
2023/11/07 11:51:41;;;;;;;2.50;1.47;;;13.20;99.90;;;;;;5054615;28;20436;-63
2023/11/07 11:54:12;;;;;;;1.83;1.73;;;13.20;99.90;;;;;;5065470;28;20470;-64
2023/11/07 11:56:50;;;;;;;1.50;1.27;;;13.20;99.90;;;;;;5067080;28;20521;-64
2023/11/07 11:59:53;;;;;;;1.30;1.03;;;13.20;99.90;;;;;;5067495;28;20419;-65
2023/11/07 12:02:40;;;;;;;1.23;1.13;;;13.30;99.90;;;;;;5058840;28;20551;-65
2023/11/07 12:05:18;;;;;;;3.60;1.40;;;13.50;99.90;;;;;;5064586;28;20491;-64
2023/11/07 12:07:45;;;;;;;2.13;1.00;;;13.70;99.90;;;;;;5068194;28;20456;-64
2023/11/07 12:10:13;;;;;;;1.63;1.10;;;13.70;99.90;;;;;;5071785;28;20443;-65
2023/11/07 12:12:39;;;;;;;2.43;1.20;;;13.80;99.90;;;;;;5070335;28;20503;-65
2023/11/07 12:15:07;;;;;;;1.70;1.27;;;13.80;99.90;;;;;;5045951;28;20522;-65
2023/11/07 12:18:03;;;;;;;2.13;1.20;;;13.80;99.90;;;;;;5052377;28;20844;-65
2023/11/07 12:20:28;;;;;;;1.80;1.30;;;13.70;99.90;;;;;;5021145;28;20444;-63
2023/11/07 12:22:54;;;;;;;1.43;0.90;;;13.70;99.90;;;;;;5042877;28;20433;-64
2023/11/07 12:25:21;;;;;;;3.03;1.03;;;13.80;99.90;;;;;;5047051;28;20180;-65
2023/11/07 12:27:56;;;;;;;1.63;1.10;;;14.00;99.90;;;;;;5061223;28;20189;-65
2023/11/07 12:30:22;;;;;;;2.43;1.10;;;13.90;99.90;;;;;;5063754;28;20422;-63
2023/11/07 12:33:06;;;;;;;2.60;1.13;;;13.80;99.90;;;;;;5069691;28;20414;-64
2023/11/07 12:35:31;;;;;;;5.20;1.37;;;13.80;99.90;;;;;;5066617;28;20427;-65
2023/11/07 12:38:00;;;;;;;1.60;1.50;;;13.70;99.90;;;;;;5056735;28;20475;-65
2023/11/07 12:40:26;;;;;;;1.90;1.20;;;13.90;99.90;;;;;;5058139;28;20167;-65
2023/11/07 12:42:55;;;;;;;4.23;3.30;;;13.70;99.90;;;;;;5072307;28;20417;-66
2023/11/07 12:45:28;;;;;;;3.50;1.27;;;13.70;99.90;;;;;;5068098;28;20403;-65
2023/11/07 12:48:05;;;;;;;2.17;1.60;;;13.80;99.90;;;;;;5064936;28;20441;-65
2023/11/07 12:50:36;;;;;;;2.60;2.00;;;14.00;99.90;;;;;;5065965;28;20525;-65
2023/11/07 12:53:04;;;;;;;2.37;1.30;;;13.70;99.90;;;;;;5048149;28;20421;-65
2023/11/07 12:55:35;;;;;;;1.77;1.20;;;13.60;99.90;;;;;;5048886;28;20425;-65